Aérodrome :
LOGIN :

S'inscrire | Disclaimer

   EN    FR    IT 

 










Légende :    VFR   VFR Marginal   IFR   IFR Intensif   IFR Très Intensif
Visi : 
Plafond : 
>= 8 km
>= 3000ft
5 à 8 km
1000 à 3000 ft
1500m à 5 km
500 à 1000 ft
800 à 1500m
200 à 500 ft
< 800m
< 200 ft
Symboles :   Orages  Brouillard  Fortes neiges  Fortes précipitations  Vent > 20 kt
SIGMETs :   Divers  Orages  Givrage  Turbulence  Onde Orograph.  Cendres Volcan.







- Altitude de l'aérodrome : 1674 ft
- Code IATA : BRN


LSZB - Bern Belp

METARs EXPIRÉS :
  • 241420Z 32006KT 270V020 9999 SCT035 27/18 Q1018 NOSIG
  • 241350Z 32007KT 9999 SCT035 25/17 Q1018 NOSIG
  • 241320Z 27007KT 9999 SCT038 BKN048 25/17 Q1019 NOSIG
  • 241250Z 28006KT 9999 SCT037 BKN045 25/17 Q1019 NOSIG
  • 241220Z AUTO 32004KT 220V040 9999 BKN039 24/16 Q1019
  • 241150Z 29005KT 230V010 9999 SCT033 BKN038 24/17 Q1019 NOSIG

Prévision TAF périmée.
ATIS : +41 22 417 40 76
Pas de NOTAMs connus pour ce terrain.



MET'MAP, la Météo Aéronautique d'un coup d'oeil ! - Copyright ORBIFLY Décembre 2007 - Disclaimer

ORBIFLY MET'MAP TEAM :

Programmation & Développement : Alexandra Zaïnal
Conception & Développement : Baudouin d'Aumeries
Co-Programmation & Développement : Marc-Olivier Méhu
Soutien technique & logistique : Manuel Goepfert

Contact : metmap@orbifly.com




SOURCES & CREDITS :

   NOAA